Time;durP1;ratioP1;P1;durP2;ratioP2;P2;SDS_P1;SDS_P2;PMS_P1;PMS_P2;Temp;Humidity;BMP_temperature;BMP_pressure;BME280_temperature;BME280_humidity;BME280_pressure;Samples;Min_cycle;Max_cycle;Signal;HPM_P1;HPM_P2
2021/05/21 00:04:14;;;;;;;10.20;6.85;;;;;;;;;;10301598;28;20051;-67
2021/05/21 00:09:10;;;;;;;12.35;6.13;;;;;;;;;;10301204;28;22219;-67
2021/05/21 00:14:07;;;;;;;10.52;6.03;;;;;;;;;;10304508;28;20071;-67
2021/05/21 00:19:03;;;;;;;10.02;5.88;;;;;;;;;;10301708;28;20053;-66
2021/05/21 00:24:00;;;;;;;10.80;6.75;;;;;;;;;;10298275;28;20503;-68
2021/05/21 00:28:56;;;;;;;11.02;6.65;;;;;;;;;;10309501;28;20049;-65
2021/05/21 00:33:53;;;;;;;10.18;6.30;;;;;;;;;;10302220;28;20044;-66
2021/05/21 00:38:49;;;;;;;11.85;6.70;;;;;;;;;;10304647;28;20115;-66
2021/05/21 00:43:45;;;;;;;11.25;6.97;;;;;;;;;;10303353;28;20075;-67
2021/05/21 00:48:42;;;;;;;12.73;7.60;;;;;;;;;;10295448;28;20099;-67
2021/05/21 00:53:39;;;;;;;10.48;6.38;;;;;;;;;;10298253;28;20048;-66
2021/05/21 00:58:35;;;;;;;12.13;7.03;;;;;;;;;;10300315;28;20045;-67
2021/05/21 01:03:32;;;;;;;11.32;7.03;;;;;;;;;;10291500;28;20564;-67
2021/05/21 01:08:28;;;;;;;10.75;7.18;;;;;;;;;;10300648;28;20624;-67
2021/05/21 01:13:33;;;;;;;10.35;6.78;;;;;;;;;;10297922;28;20097;-67
2021/05/21 01:18:29;;;;;;;10.38;7.05;;;;;;;;;;10305580;28;20049;-67
2021/05/21 01:23:26;;;;;;;10.98;7.03;;;;;;;;;;10302797;28;20399;-67
2021/05/21 01:28:22;;;;;;;11.25;6.85;;;;;;;;;;10299856;28;20064;-67
2021/05/21 01:33:19;;;;;;;11.30;6.85;;;;;;;;;;10293310;28;20045;-68
2021/05/21 01:38:15;;;;;;;11.75;7.18;;;;;;;;;;10302050;28;20044;-68
2021/05/21 01:43:12;;;;;;;11.55;6.63;;;;;;;;;;10307081;28;20453;-65
2021/05/21 01:48:10;;;;;;;12.38;7.00;;;;;;;;;;10302992;28;20468;-68
2021/05/21 01:53:07;;;;;;;10.40;7.22;;;;;;;;;;10288690;28;20082;-67
2021/05/21 01:58:03;;;;;;;11.07;6.70;;;;;;;;;;10291182;28;20045;-68
2021/05/21 02:02:59;;;;;;;10.48;7.22;;;;;;;;;;10291851;28;20087;-68
2021/05/21 02:07:56;;;;;;;11.07;7.25;;;;;;;;;;10319898;28;20040;-69
2021/05/21 02:12:52;;;;;;;11.27;6.72;;;;;;;;;;10299222;28;20106;-68
2021/05/21 02:17:48;;;;;;;11.50;7.68;;;;;;;;;;10300723;28;20643;-68
2021/05/21 02:22:45;;;;;;;10.48;7.20;;;;;;;;;;10305175;28;20048;-68
2021/05/21 02:27:41;;;;;;;12.75;6.57;;;;;;;;;;10303275;28;20472;-68
2021/05/21 02:32:38;;;;;;;10.90;7.25;;;;;;;;;;10303408;28;20049;-68
2021/05/21 02:37:35;;;;;;;11.30;7.05;;;;;;;;;;10299606;28;20498;-68
2021/05/21 02:42:31;;;;;;;11.23;7.88;;;;;;;;;;10293760;28;20044;-67
2021/05/21 02:47:28;;;;;;;12.15;7.95;;;;;;;;;;10300651;28;20697;-69
2021/05/21 02:52:25;;;;;;;11.35;7.63;;;;;;;;;;10306835;28;20551;-68
2021/05/21 02:57:24;;;;;;;14.02;7.68;;;;;;;;;;10296250;28;20056;-68
2021/05/21 03:02:21;;;;;;;11.70;7.70;;;;;;;;;;10302701;28;20041;-68
2021/05/21 03:07:18;;;;;;;12.95;8.07;;;;;;;;;;10298316;28;20064;-68
2021/05/21 03:12:14;;;;;;;14.80;8.85;;;;;;;;;;10300028;28;20083;-67
2021/05/21 03:17:11;;;;;;;11.77;7.97;;;;;;;;;;10302949;28;20040;-67
2021/05/21 03:22:07;;;;;;;10.15;7.28;;;;;;;;;;10296835;28;20122;-67
2021/05/21 03:27:04;;;;;;;14.55;8.07;;;;;;;;;;10301517;28;20049;-68
2021/05/21 03:32:01;;;;;;;12.10;7.47;;;;;;;;;;10304008;28;20037;-68
2021/05/21 03:36:57;;;;;;;11.18;7.53;;;;;;;;;;10299043;28;20048;-67
2021/05/21 03:41:53;;;;;;;9.95;6.85;;;;;;;;;;10305122;28;20045;-70
2021/05/21 03:46:50;;;;;;;11.95;7.32;;;;;;;;;;10304650;28;20040;-68
2021/05/21 03:51:46;;;;;;;10.52;6.75;;;;;;;;;;10308111;28;20166;-69
2021/05/21 03:56:42;;;;;;;12.63;6.70;;;;;;;;;;10303372;28;20078;-69
2021/05/21 04:01:39;;;;;;;12.75;7.38;;;;;;;;;;10303406;28;20068;-68
2021/05/21 04:06:35;;;;;;;9.65;6.78;;;;;;;;;;10307987;28;20079;-69
2021/05/21 04:11:35;;;;;;;10.85;6.93;;;;;;;;;;10304490;28;20064;-70
2021/05/21 04:16:32;;;;;;;11.98;7.00;;;;;;;;;;10304213;28;20101;-70
2021/05/21 04:21:28;;;;;;;13.38;7.38;;;;;;;;;;10304120;28;20040;-70
2021/05/21 04:26:26;;;;;;;11.20;6.90;;;;;;;;;;10301802;28;20056;-71
2021/05/21 04:31:23;;;;;;;12.05;6.95;;;;;;;;;;10302565;28;20088;-70
2021/05/21 04:36:19;;;;;;;12.52;6.90;;;;;;;;;;10301580;28;20790;-70
2021/05/21 04:41:16;;;;;;;8.88;6.25;;;;;;;;;;10303880;28;20060;-70
2021/05/21 04:46:13;;;;;;;13.45;6.38;;;;;;;;;;10306397;28;20503;-69
2021/05/21 04:51:10;;;;;;;11.30;6.40;;;;;;;;;;10301604;28;20052;-69
2021/05/21 04:56:07;;;;;;;10.52;6.88;;;;;;;;;;10300211;28;20040;-69
2021/05/21 05:01:04;;;;;;;10.05;7.15;;;;;;;;;;10300199;28;20406;-68
2021/05/21 05:06:01;;;;;;;10.48;6.22;;;;;;;;;;10301324;28;20110;-69
2021/05/21 05:10:57;;;;;;;9.35;5.57;;;;;;;;;;10301805;28;20093;-68
2021/05/21 05:15:53;;;;;;;10.82;5.40;;;;;;;;;;10295035;28;20070;-69
2021/05/21 05:20:50;;;;;;;9.15;5.10;;;;;;;;;;10302571;28;20075;-68
2021/05/21 05:25:46;;;;;;;7.63;4.72;;;;;;;;;;10305460;28;20615;-68
2021/05/21 05:30:43;;;;;;;9.35;4.72;;;;;;;;;;10301794;28;20064;-69
2021/05/21 05:35:41;;;;;;;10.35;4.82;;;;;;;;;;10299449;28;20041;-70
2021/05/21 05:40:38;;;;;;;8.13;4.88;;;;;;;;;;10302856;28;20059;-70
2021/05/21 05:45:35;;;;;;;9.00;4.45;;;;;;;;;;10297435;28;20702;-69
2021/05/21 05:50:31;;;;;;;5.63;3.45;;;;;;;;;;10294714;28;20056;-69
2021/05/21 05:55:27;;;;;;;6.78;4.15;;;;;;;;;;10300428;28;20044;-69
2021/05/21 06:00:24;;;;;;;5.70;3.65;;;;;;;;;;10299544;28;20464;-69
2021/05/21 06:05:20;;;;;;;10.15;4.03;;;;;;;;;;10304218;28;20040;-69
2021/05/21 06:10:17;;;;;;;8.50;3.88;;;;;;;;;;10295973;28;20048;-69
2021/05/21 06:15:13;;;;;;;8.40;4.75;;;;;;;;;;10306557;28;20044;-69
2021/05/21 06:20:10;;;;;;;8.68;4.25;;;;;;;;;;10306254;28;20048;-69
2021/05/21 06:25:09;;;;;;;7.47;3.30;;;;;;;;;;10308760;28;20091;-69
2021/05/21 06:30:08;;;;;;;4.93;3.20;;;;;;;;;;10306708;28;20044;-68
2021/05/21 06:35:06;;;;;;;9.13;3.22;;;;;;;;;;10291936;28;20114;-68
2021/05/21 06:40:02;;;;;;;4.90;3.00;;;;;;;;;;10296739;28;20083;-70
2021/05/21 06:44:59;;;;;;;5.53;3.25;;;;;;;;;;10300821;28;20052;-70
2021/05/21 06:49:55;;;;;;;7.70;3.70;;;;;;;;;;10296188;28;20099;-71
2021/05/21 06:54:52;;;;;;;9.02;3.30;;;;;;;;;;10301397;28;21582;-70
2021/05/21 06:59:48;;;;;;;5.72;3.17;;;;;;;;;;10301629;28;20048;-70
2021/05/21 07:04:44;;;;;;;6.30;2.83;;;;;;;;;;10302620;28;20569;-70
2021/05/21 07:09:41;;;;;;;8.40;2.65;;;;;;;;;;10294790;28;20090;-70
2021/05/21 07:14:37;;;;;;;5.22;2.65;;;;;;;;;;10304393;28;20066;-68
2021/05/21 07:19:34;;;;;;;8.52;2.80;;;;;;;;;;10302154;28;20040;-70
2021/05/21 07:24:35;;;;;;;7.93;2.65;;;;;;;;;;10304823;28;20040;-71
2021/05/21 07:29:31;;;;;;;7.97;2.08;;;;;;;;;;10302763;28;20070;-70
2021/05/21 07:34:28;;;;;;;8.43;1.88;;;;;;;;;;10299114;28;20036;-70
2021/05/21 07:39:24;;;;;;;7.47;1.30;;;;;;;;;;10302072;28;20033;-70
2021/05/21 07:44:21;;;;;;;4.57;1.42;;;;;;;;;;10299104;28;20369;-70
2021/05/21 07:49:22;;;;;;;3.60;1.38;;;;;;;;;;10297435;28;20043;-70
2021/05/21 07:54:19;;;;;;;10.13;1.67;;;;;;;;;;10290652;28;20082;-70
2021/05/21 07:59:17;;;;;;;3.75;1.40;;;;;;;;;;10294849;28;20044;-70
2021/05/21 08:04:13;;;;;;;5.35;1.50;;;;;;;;;;10292582;28;20507;-70
2021/05/21 08:09:10;;;;;;;5.40;1.85;;;;;;;;;;10287880;28;20037;-70
2021/05/21 08:14:08;;;;;;;8.13;1.55;;;;;;;;;;10284302;28;20105;-70
2021/05/21 08:19:05;;;;;;;4.28;1.50;;;;;;;;;;10297758;28;20090;-70
2021/05/21 08:24:02;;;;;;;8.25;3.13;;;;;;;;;;10302414;28;20099;-69
2021/05/21 08:28:58;;;;;;;10.88;3.58;;;;;;;;;;10313434;28;20041;-69
2021/05/21 08:33:55;;;;;;;7.13;2.78;;;;;;;;;;10311200;28;20044;-69
2021/05/21 08:38:52;;;;;;;8.25;2.17;;;;;;;;;;10311260;28;20037;-70
2021/05/21 08:43:49;;;;;;;10.57;1.80;;;;;;;;;;10311635;28;20718;-67
2021/05/21 08:48:46;;;;;;;15.23;2.72;;;;;;;;;;10310667;28;20462;-69
2021/05/21 08:53:43;;;;;;;7.65;2.30;;;;;;;;;;10312313;28;20110;-69
2021/05/21 08:58:42;;;;;;;10.30;2.25;;;;;;;;;;10308165;28;20513;-69
2021/05/21 09:03:39;;;;;;;6.32;2.53;;;;;;;;;;10300678;28;20044;-69
2021/05/21 09:08:40;;;;;;;7.60;2.15;;;;;;;;;;10307643;28;20583;-69
2021/05/21 09:13:36;;;;;;;12.75;3.08;;;;;;;;;;10305910;28;20064;-69
2021/05/21 09:18:33;;;;;;;12.68;3.05;;;;;;;;;;10295186;28;20173;-69
2021/05/21 09:23:29;;;;;;;6.38;2.58;;;;;;;;;;10300798;28;20709;-69
2021/05/21 09:28:37;;;;;;;10.73;2.45;;;;;;;;;;10294807;28;20056;-68
2021/05/21 09:33:33;;;;;;;8.13;2.63;;;;;;;;;;10296434;28;20400;-69
2021/05/21 09:38:46;;;;;;;11.82;2.13;;;;;;;;;;10300208;28;20060;-68
2021/05/21 09:43:50;;;;;;;10.00;2.63;;;;;;;;;;10297651;28;20076;-70
2021/05/21 09:48:47;;;;;;;13.13;2.20;;;;;;;;;;10309400;28;20048;-69
2021/05/21 09:53:46;;;;;;;12.45;2.33;;;;;;;;;;10307831;28;20101;-69
2021/05/21 09:58:43;;;;;;;11.98;2.40;;;;;;;;;;10308179;28;20044;-69
2021/05/21 10:03:42;;;;;;;13.15;2.58;;;;;;;;;;10304997;28;20498;-69
2021/05/21 10:08:39;;;;;;;8.93;2.90;;;;;;;;;;10310043;28;20086;-70
2021/05/21 10:13:36;;;;;;;11.32;1.73;;;;;;;;;;10307339;28;20113;-69
2021/05/21 10:18:34;;;;;;;11.43;1.80;;;;;;;;;;10300695;28;20044;-69
2021/05/21 10:23:36;;;;;;;11.48;2.05;;;;;;;;;;10301676;28;20052;-69
2021/05/21 10:28:32;;;;;;;8.43;2.03;;;;;;;;;;10301871;28;20470;-69
2021/05/21 10:33:31;;;;;;;10.98;2.35;;;;;;;;;;10295070;28;20090;-69
2021/05/21 10:38:28;;;;;;;10.93;1.95;;;;;;;;;;10293169;28;20049;-68
2021/05/21 10:43:24;;;;;;;10.60;1.67;;;;;;;;;;10295726;28;20723;-68
2021/05/21 10:48:29;;;;;;;11.98;2.03;;;;;;;;;;10296586;28;20075;-68
2021/05/21 10:53:25;;;;;;;9.77;1.77;;;;;;;;;;10301130;28;20076;-68
2021/05/21 10:58:34;;;;;;;9.85;1.83;;;;;;;;;;10294532;28;20467;-68
2021/05/21 11:03:31;;;;;;;11.55;2.22;;;;;;;;;;10282802;28;20053;-68
2021/05/21 11:08:28;;;;;;;7.70;1.58;;;;;;;;;;10294295;28;20125;-68
2021/05/21 11:13:26;;;;;;;10.68;2.13;;;;;;;;;;10283278;28;20115;-68
2021/05/21 11:18:23;;;;;;;8.43;1.75;;;;;;;;;;10292080;28;20073;-69
2021/05/21 11:23:23;;;;;;;11.30;2.13;;;;;;;;;;10302849;28;20040;-68
2021/05/21 11:28:19;;;;;;;8.57;1.73;;;;;;;;;;10304109;28;20105;-68
2021/05/21 11:33:19;;;;;;;8.10;1.83;;;;;;;;;;10304120;28;20086;-68
2021/05/21 11:38:22;;;;;;;7.45;1.45;;;;;;;;;;10300680;28;20056;-69
2021/05/21 11:43:22;;;;;;;10.93;1.50;;;;;;;;;;10302721;28;20468;-68
2021/05/21 11:48:35;;;;;;;5.15;1.10;;;;;;;;;;10305606;28;20072;-68
2021/05/21 11:53:31;;;;;;;7.50;1.50;;;;;;;;;;10312877;28;20102;-68
2021/05/21 11:58:29;;;;;;;9.70;1.50;;;;;;;;;;10292970;28;20048;-68
2021/05/21 12:03:52;;;;;;;8.98;2.00;;;;;;;;;;10291121;28;20132;-68
2021/05/21 12:08:49;;;;;;;9.57;1.98;;;;;;;;;;10292223;28;20119;-68
2021/05/21 12:13:45;;;;;;;8.52;1.42;;;;;;;;;;10299295;28;20619;-69
2021/05/21 12:18:42;;;;;;;13.02;1.88;;;;;;;;;;10296356;28;20074;-69
2021/05/21 12:23:39;;;;;;;9.23;2.05;;;;;;;;;;10303111;28;20114;-68
2021/05/21 12:28:36;;;;;;;11.73;1.80;;;;;;;;;;10290849;28;20068;-68
2021/05/21 12:33:34;;;;;;;6.50;1.10;;;;;;;;;;10301196;28;20060;-69
2021/05/21 12:38:30;;;;;;;6.22;1.15;;;;;;;;;;10299081;28;20052;-70
2021/05/21 12:43:27;;;;;;;7.15;1.40;;;;;;;;;;10307399;28;20052;-69
2021/05/21 12:48:51;;;;;;;10.27;1.52;;;;;;;;;;10310619;28;20181;-68
2021/05/21 12:53:48;;;;;;;5.63;1.17;;;;;;;;;;10300796;28;20044;-68
2021/05/21 12:58:45;;;;;;;7.75;1.52;;;;;;;;;;10310037;28;20102;-68
2021/05/21 13:03:54;;;;;;;7.20;1.33;;;;;;;;;;10308820;28;20502;-68
2021/05/21 13:08:51;;;;;;;7.45;1.67;;;;;;;;;;10306056;28;20098;-68
2021/05/21 13:13:47;;;;;;;8.10;1.27;;;;;;;;;;10303575;28;20098;-69
2021/05/21 13:18:43;;;;;;;8.73;1.40;;;;;;;;;;10295143;28;20036;-68
2021/05/21 13:23:40;;;;;;;7.88;1.90;;;;;;;;;;10296897;28;20568;-68
2021/05/21 13:28:40;;;;;;;6.80;1.60;;;;;;;;;;10291985;28;20100;-68
2021/05/21 13:33:37;;;;;;;8.40;1.30;;;;;;;;;;10288484;28;20151;-68
2021/05/21 13:38:33;;;;;;;9.65;2.00;;;;;;;;;;10302481;28;20076;-68
2021/05/21 13:43:30;;;;;;;9.07;2.03;;;;;;;;;;10297976;28;20080;-69
2021/05/21 13:48:26;;;;;;;7.18;1.50;;;;;;;;;;10315860;28;20116;-68
2021/05/21 13:53:24;;;;;;;8.63;1.55;;;;;;;;;;10292739;28;20079;-68
2021/05/21 13:58:20;;;;;;;12.25;1.50;;;;;;;;;;10303107;28;20110;-68
2021/05/21 14:03:17;;;;;;;6.60;1.30;;;;;;;;;;10294961;28;20083;-68
2021/05/21 14:08:13;;;;;;;9.88;1.33;;;;;;;;;;10305094;28;20086;-70
2021/05/21 14:13:10;;;;;;;11.10;1.65;;;;;;;;;;10299084;28;20083;-70
2021/05/21 14:18:06;;;;;;;10.30;0.90;;;;;;;;;;10300357;28;20095;-67
2021/05/21 14:23:03;;;;;;;6.68;0.88;;;;;;;;;;10293979;28;20045;-70
2021/05/21 14:28:00;;;;;;;6.32;1.20;;;;;;;;;;10290109;28;20087;-67
2021/05/21 14:32:58;;;;;;;11.77;1.58;;;;;;;;;;10297555;28;20115;-69
2021/05/21 14:37:54;;;;;;;5.22;1.00;;;;;;;;;;10296119;28;20056;-70
2021/05/21 14:42:51;;;;;;;5.32;0.82;;;;;;;;;;10295886;28;20560;-69
2021/05/21 14:47:47;;;;;;;2.33;0.50;;;;;;;;;;10293881;28;20110;-69
2021/05/21 14:52:45;;;;;;;3.53;0.85;;;;;;;;;;10297560;28;20402;-69
2021/05/21 14:57:41;;;;;;;4.13;0.60;;;;;;;;;;10304756;28;20448;-70
2021/05/21 15:02:40;;;;;;;4.35;0.75;;;;;;;;;;10302703;28;20056;-68
2021/05/21 15:07:37;;;;;;;5.88;1.00;;;;;;;;;;10300609;28;20068;-69
2021/05/21 15:12:33;;;;;;;3.47;0.90;;;;;;;;;;10302875;28;20098;-67
2021/05/21 15:27:56;;;;;;;7.80;1.27;;;;;;;;;;10302519;28;20049;-70
2021/05/21 15:32:53;;;;;;;6.40;1.10;;;;;;;;;;10313711;28;20084;-69
2021/05/21 15:37:49;;;;;;;5.03;1.63;;;;;;;;;;10314596;28;20041;-68
2021/05/21 15:48:01;;;;;;;7.30;1.30;;;;;;;;;;10311570;28;20044;-68
2021/05/21 16:03:18;;;;;;;8.02;1.60;;;;;;;;;;10293274;28;20132;-69
2021/05/21 16:08:15;;;;;;;4.95;1.02;;;;;;;;;;10305785;28;20456;-70
2021/05/21 16:13:11;;;;;;;11.35;0.80;;;;;;;;;;10300752;28;20131;-69
2021/05/21 16:18:08;;;;;;;3.28;0.70;;;;;;;;;;10302432;28;20048;-70
2021/05/21 16:23:04;;;;;;;6.97;0.82;;;;;;;;;;10301096;28;20044;-69
2021/05/21 16:28:01;;;;;;;10.73;0.73;;;;;;;;;;10294803;28;20048;-70
2021/05/21 16:32:59;;;;;;;7.22;1.23;;;;;;;;;;10307463;28;20114;-71
2021/05/21 16:37:55;;;;;;;3.33;0.75;;;;;;;;;;10304162;28;20044;-71
2021/05/21 16:42:52;;;;;;;4.47;0.85;;;;;;;;;;10302812;28;20052;-69
2021/05/21 16:47:48;;;;;;;3.90;0.80;;;;;;;;;;10303831;28;20074;-68
2021/05/21 16:52:50;;;;;;;3.42;1.05;;;;;;;;;;10303945;28;20036;-68
2021/05/21 16:57:46;;;;;;;5.65;1.50;;;;;;;;;;10302859;28;20091;-68
2021/05/21 17:02:43;;;;;;;4.60;1.30;;;;;;;;;;10297469;28;20110;-68
2021/05/21 17:07:39;;;;;;;4.68;0.95;;;;;;;;;;10297009;28;20097;-68
2021/05/21 17:12:39;;;;;;;4.88;0.93;;;;;;;;;;10302278;28;20437;-68
2021/05/21 17:18:28;;;;;;;8.23;1.42;;;;;;;;;;10301348;28;20044;-69
2021/05/21 17:28:30;;;;;;;7.13;1.23;;;;;;;;;;10304384;28;20068;-68
2021/05/21 17:44:18;;;;;;;4.88;0.90;;;;;;;;;;10288671;28;20044;-69
2021/05/21 17:54:22;;;;;;;3.78;0.63;;;;;;;;;;10301787;28;20060;-68
2021/05/21 17:59:35;;;;;;;8.32;1.35;;;;;;;;;;10301343;28;20082;-69
2021/05/21 19:05:51;;;;;;;6.20;1.70;;;;;;;;;;10289098;28;20510;-69
2021/05/21 19:16:05;;;;;;;5.75;1.40;;;;;;;;;;10289276;28;20044;-68
2021/05/21 19:26:16;;;;;;;8.52;1.35;;;;;;;;;;10288522;28;20053;-68
2021/05/21 19:47:03;;;;;;;7.32;1.45;;;;;;;;;;10297606;28;20049;-68
2021/05/21 19:57:56;;;;;;;6.65;1.25;;;;;;;;;;10293811;28;20071;-68
2021/05/21 20:13:07;;;;;;;7.28;1.20;;;;;;;;;;10294756;28;20041;-68
2021/05/21 20:18:03;;;;;;;6.32;1.23;;;;;;;;;;10301931;28;20095;-67
2021/05/21 20:23:00;;;;;;;5.20;1.25;;;;;;;;;;10291459;28;20045;-68
2021/05/21 20:33:01;;;;;;;4.10;1.17;;;;;;;;;;10301728;28;20037;-70
2021/05/21 20:43:27;;;;;;;4.20;1.58;;;;;;;;;;10297084;28;20048;-70
2021/05/21 20:49:05;;;;;;;4.88;1.08;;;;;;;;;;10293612;28;20072;-68
2021/05/21 21:04:42;;;;;;;3.92;1.15;;;;;;;;;;10280326;28;20494;-69
2021/05/21 21:09:50;;;;;;;5.93;1.37;;;;;;;;;;10297185;28;20403;-69
2021/05/21 21:50:19;;;;;;;7.90;1.52;;;;;;;;;;10304481;28;20748;-71
2021/05/21 22:00:22;;;;;;;7.55;1.00;;;;;;;;;;10282234;28;20044;-68
2021/05/21 22:11:17;;;;;;;6.97;1.40;;;;;;;;;;10292762;28;20102;-64
2021/05/21 22:16:32;;;;;;;9.55;1.60;;;;;;;;;;10290760;28;20048;-68
2021/05/21 22:26:20;;;;;;;7.53;1.63;;;;;;;;;;10300099;28;20556;-68
2021/05/21 22:31:17;;;;;;;7.60;1.73;;;;;;;;;;10305576;28;20048;-68
2021/05/21 22:36:13;;;;;;;10.07;2.42;;;;;;;;;;10295436;28;20036;-69
2021/05/21 22:41:10;;;;;;;10.82;3.40;;;;;;;;;;10301831;28;20110;-69
2021/05/21 22:46:07;;;;;;;12.50;2.92;;;;;;;;;;10298628;28;20041;-69
2021/05/21 22:51:03;;;;;;;8.82;1.80;;;;;;;;;;10301012;28;20090;-68
2021/05/21 22:56:02;;;;;;;6.00;1.77;;;;;;;;;;10294888;28;20048;-69
2021/05/21 23:00:58;;;;;;;8.52;2.00;;;;;;;;;;10303290;28;20662;-68
2021/05/21 23:05:55;;;;;;;5.50;1.63;;;;;;;;;;10291780;28;20498;-68
2021/05/21 23:10:51;;;;;;;5.60;1.88;;;;;;;;;;10297629;28;20063;-68
2021/05/21 23:15:48;;;;;;;4.55;1.70;;;;;;;;;;10288453;28;20037;-68
2021/05/21 23:20:44;;;;;;;8.88;2.28;;;;;;;;;;10295478;28;20040;-68
2021/05/21 23:25:40;;;;;;;6.20;1.67;;;;;;;;;;10298583;28;20131;-68
2021/05/21 23:30:38;;;;;;;9.00;2.10;;;;;;;;;;10295556;28;20506;-67
2021/05/21 23:35:36;;;;;;;10.05;2.03;;;;;;;;;;10296842;28;20053;-67
2021/05/21 23:40:33;;;;;;;8.95;2.33;;;;;;;;;;10297059;28;20098;-66
2021/05/21 23:45:29;;;;;;;12.57;4.43;;;;;;;;;;10296132;28;20649;-69
2021/05/21 23:50:26;;;;;;;8.07;2.40;;;;;;;;;;10300998;28;20119;-69
2021/05/21 23:55:22;;;;;;;6.70;1.90;;;;;;;;;;10309890;28;20414;-65
